sensor_id;sensor_type;location;lat;lon;timestamp;P1;durP1;ratioP1;P2;durP2;ratioP2
20138;SDS011;10230;51.502;10.800;2022-10-01T00:01:56;5.30;;;2.50;;
20138;SDS011;10230;51.502;10.800;2022-10-01T00:04:24;3.17;;;2.30;;
20138;SDS011;10230;51.502;10.800;2022-10-01T00:06:50;4.00;;;2.57;;
20138;SDS011;10230;51.502;10.800;2022-10-01T00:09:16;4.20;;;2.83;;
20138;SDS011;10230;51.502;10.800;2022-10-01T00:11:42;4.00;;;2.33;;
20138;SDS011;10230;51.502;10.800;2022-10-01T00:14:08;3.80;;;2.17;;
20138;SDS011;10230;51.502;10.800;2022-10-01T00:16:34;4.53;;;2.60;;
20138;SDS011;10230;51.502;10.800;2022-10-01T00:19:00;2.90;;;2.10;;
20138;SDS011;10230;51.502;10.800;2022-10-01T00:21:27;3.57;;;2.40;;
20138;SDS011;10230;51.502;10.800;2022-10-01T00:23:57;2.87;;;2.40;;
20138;SDS011;10230;51.502;10.800;2022-10-01T00:26:25;5.70;;;2.30;;
20138;SDS011;10230;51.502;10.800;2022-10-01T00:28:52;3.97;;;2.60;;
20138;SDS011;10230;51.502;10.800;2022-10-01T00:31:18;2.70;;;2.20;;
20138;SDS011;10230;51.502;10.800;2022-10-01T00:33:45;4.47;;;2.50;;
20138;SDS011;10230;51.502;10.800;2022-10-01T00:36:11;2.73;;;1.77;;
20138;SDS011;10230;51.502;10.800;2022-10-01T00:38:37;3.47;;;2.30;;
20138;SDS011;10230;51.502;10.800;2022-10-01T00:41:07;3.93;;;2.60;;
20138;SDS011;10230;51.502;10.800;2022-10-01T00:43:34;2.80;;;2.00;;
20138;SDS011;10230;51.502;10.800;2022-10-01T00:46:18;3.83;;;2.13;;
20138;SDS011;10230;51.502;10.800;2022-10-01T00:48:51;3.40;;;2.30;;
20138;SDS011;10230;51.502;10.800;2022-10-01T00:51:22;4.57;;;1.93;;
20138;SDS011;10230;51.502;10.800;2022-10-01T00:53:48;3.57;;;2.20;;
20138;SDS011;10230;51.502;10.800;2022-10-01T00:56:14;4.67;;;2.30;;
20138;SDS011;10230;51.502;10.800;2022-10-01T00:58:41;2.73;;;2.03;;
20138;SDS011;10230;51.502;10.800;2022-10-01T01:01:07;2.40;;;1.83;;
20138;SDS011;10230;51.502;10.800;2022-10-01T01:03:33;4.23;;;2.03;;
20138;SDS011;10230;51.502;10.800;2022-10-01T01:05:59;2.97;;;1.83;;
20138;SDS011;10230;51.502;10.800;2022-10-01T01:08:27;2.83;;;2.30;;
20138;SDS011;10230;51.502;10.800;2022-10-01T01:13:36;2.97;;;2.03;;
20138;SDS011;10230;51.502;10.800;2022-10-01T01:16:05;2.93;;;2.23;;
20138;SDS011;10230;51.502;10.800;2022-10-01T01:21:17;2.30;;;1.73;;
20138;SDS011;10230;51.502;10.800;2022-10-01T01:29:01;5.90;;;1.73;;
20138;SDS011;10230;51.502;10.800;2022-10-01T01:31:31;2.93;;;1.93;;
20138;SDS011;10230;51.502;10.800;2022-10-01T01:34:00;3.87;;;1.97;;
20138;SDS011;10230;51.502;10.800;2022-10-01T01:36:30;3.80;;;2.17;;
20138;SDS011;10230;51.502;10.800;2022-10-01T01:38:58;4.07;;;1.70;;
20138;SDS011;10230;51.502;10.800;2022-10-01T01:41:26;2.63;;;1.90;;
20138;SDS011;10230;51.502;10.800;2022-10-01T01:43:55;3.93;;;1.70;;
20138;SDS011;10230;51.502;10.800;2022-10-01T01:46:22;2.53;;;1.70;;
20138;SDS011;10230;51.502;10.800;2022-10-01T01:48:56;2.87;;;2.00;;
20138;SDS011;10230;51.502;10.800;2022-10-01T01:51:30;2.50;;;1.77;;
20138;SDS011;10230;51.502;10.800;2022-10-01T01:53:57;3.57;;;2.17;;
20138;SDS011;10230;51.502;10.800;2022-10-01T01:56:24;2.17;;;1.60;;
20138;SDS011;10230;51.502;10.800;2022-10-01T01:58:50;2.43;;;1.70;;
20138;SDS011;10230;51.502;10.800;2022-10-01T02:04:04;2.27;;;1.80;;
20138;SDS011;10230;51.502;10.800;2022-10-01T02:06:40;3.40;;;1.70;;
20138;SDS011;10230;51.502;10.800;2022-10-01T02:09:25;4.53;;;2.17;;
20138;SDS011;10230;51.502;10.800;2022-10-01T02:17:03;2.53;;;1.83;;
20138;SDS011;10230;51.502;10.800;2022-10-01T02:19:35;2.90;;;2.20;;
20138;SDS011;10230;51.502;10.800;2022-10-01T02:22:10;3.73;;;1.90;;
20138;SDS011;10230;51.502;10.800;2022-10-01T02:24:40;2.57;;;1.90;;
20138;SDS011;10230;51.502;10.800;2022-10-01T02:27:16;3.27;;;1.70;;
20138;SDS011;10230;51.502;10.800;2022-10-01T02:29:45;1.97;;;1.70;;
20138;SDS011;10230;51.502;10.800;2022-10-01T02:32:12;2.27;;;1.70;;
20138;SDS011;10230;51.502;10.800;2022-10-01T02:34:38;2.53;;;1.80;;
20138;SDS011;10230;51.502;10.800;2022-10-01T02:37:05;4.37;;;1.67;;
20138;SDS011;10230;51.502;10.800;2022-10-01T02:39:32;2.70;;;1.70;;
20138;SDS011;10230;51.502;10.800;2022-10-01T02:41:58;5.83;;;1.93;;
20138;SDS011;10230;51.502;10.800;2022-10-01T02:44:27;5.77;;;2.43;;
20138;SDS011;10230;51.502;10.800;2022-10-01T02:49:38;4.13;;;2.13;;
20138;SDS011;10230;51.502;10.800;2022-10-01T02:52:26;4.43;;;2.37;;
20138;SDS011;10230;51.502;10.800;2022-10-01T02:54:55;5.87;;;2.27;;
20138;SDS011;10230;51.502;10.800;2022-10-01T02:57:22;3.10;;;1.63;;
20138;SDS011;10230;51.502;10.800;2022-10-01T02:59:49;2.77;;;1.70;;
20138;SDS011;10230;51.502;10.800;2022-10-01T03:02:15;2.60;;;2.27;;
20138;SDS011;10230;51.502;10.800;2022-10-01T03:04:42;2.03;;;1.57;;
20138;SDS011;10230;51.502;10.800;2022-10-01T03:07:08;2.80;;;1.97;;
20138;SDS011;10230;51.502;10.800;2022-10-01T03:09:34;2.97;;;1.97;;
20138;SDS011;10230;51.502;10.800;2022-10-01T03:12:01;3.13;;;1.90;;
20138;SDS011;10230;51.502;10.800;2022-10-01T03:14:27;2.57;;;1.80;;
20138;SDS011;10230;51.502;10.800;2022-10-01T03:16:53;5.50;;;2.13;;
20138;SDS011;10230;51.502;10.800;2022-10-01T03:19:19;2.83;;;1.87;;
20138;SDS011;10230;51.502;10.800;2022-10-01T03:21:46;2.43;;;1.70;;
20138;SDS011;10230;51.502;10.800;2022-10-01T03:24:12;4.33;;;1.90;;
20138;SDS011;10230;51.502;10.800;2022-10-01T03:26:38;1.97;;;1.40;;
20138;SDS011;10230;51.502;10.800;2022-10-01T03:29:04;4.43;;;2.20;;
20138;SDS011;10230;51.502;10.800;2022-10-01T03:31:30;3.47;;;2.40;;
20138;SDS011;10230;51.502;10.800;2022-10-01T03:33:57;2.50;;;2.00;;
20138;SDS011;10230;51.502;10.800;2022-10-01T03:36:24;2.73;;;2.20;;
20138;SDS011;10230;51.502;10.800;2022-10-01T03:38:50;4.33;;;1.90;;
20138;SDS011;10230;51.502;10.800;2022-10-01T03:41:16;2.93;;;2.27;;
20138;SDS011;10230;51.502;10.800;2022-10-01T03:43:42;5.20;;;1.80;;
20138;SDS011;10230;51.502;10.800;2022-10-01T03:46:08;3.53;;;1.87;;
20138;SDS011;10230;51.502;10.800;2022-10-01T03:48:35;3.37;;;1.90;;
20138;SDS011;10230;51.502;10.800;2022-10-01T03:51:01;2.70;;;2.00;;
20138;SDS011;10230;51.502;10.800;2022-10-01T03:53:27;3.60;;;1.87;;
20138;SDS011;10230;51.502;10.800;2022-10-01T03:55:55;3.17;;;2.23;;
20138;SDS011;10230;51.502;10.800;2022-10-01T03:58:21;1.67;;;1.50;;
20138;SDS011;10230;51.502;10.800;2022-10-01T04:00:47;3.57;;;1.77;;
20138;SDS011;10230;51.502;10.800;2022-10-01T04:03:14;2.30;;;1.60;;
20138;SDS011;10230;51.502;10.800;2022-10-01T04:05:43;2.70;;;2.10;;
20138;SDS011;10230;51.502;10.800;2022-10-01T04:08:09;4.37;;;2.30;;
20138;SDS011;10230;51.502;10.800;2022-10-01T04:10:36;2.80;;;2.20;;
20138;SDS011;10230;51.502;10.800;2022-10-01T04:13:02;2.60;;;1.83;;
20138;SDS011;10230;51.502;10.800;2022-10-01T04:15:29;2.73;;;2.30;;
20138;SDS011;10230;51.502;10.800;2022-10-01T04:17:56;3.43;;;1.97;;
20138;SDS011;10230;51.502;10.800;2022-10-01T04:20:22;4.43;;;2.37;;
20138;SDS011;10230;51.502;10.800;2022-10-01T04:22:49;3.27;;;2.10;;
20138;SDS011;10230;51.502;10.800;2022-10-01T04:25:15;3.60;;;2.33;;
20138;SDS011;10230;51.502;10.800;2022-10-01T04:27:51;4.17;;;2.20;;
20138;SDS011;10230;51.502;10.800;2022-10-01T04:30:19;3.93;;;2.23;;
20138;SDS011;10230;51.502;10.800;2022-10-01T04:32:45;3.90;;;2.10;;
20138;SDS011;10230;51.502;10.800;2022-10-01T04:35:12;2.97;;;1.77;;
20138;SDS011;10230;51.502;10.800;2022-10-01T04:37:38;4.10;;;2.10;;
20138;SDS011;10230;51.502;10.800;2022-10-01T04:40:04;2.20;;;1.80;;
20138;SDS011;10230;51.502;10.800;2022-10-01T04:42:30;2.73;;;1.90;;
20138;SDS011;10230;51.502;10.800;2022-10-01T04:44:56;8.07;;;3.47;;
20138;SDS011;10230;51.502;10.800;2022-10-01T04:47:22;2.70;;;2.03;;
20138;SDS011;10230;51.502;10.800;2022-10-01T04:49:48;3.23;;;2.07;;
20138;SDS011;10230;51.502;10.800;2022-10-01T04:52:14;3.10;;;2.10;;
20138;SDS011;10230;51.502;10.800;2022-10-01T04:54:40;6.90;;;2.70;;
20138;SDS011;10230;51.502;10.800;2022-10-01T04:57:06;3.40;;;2.20;;
20138;SDS011;10230;51.502;10.800;2022-10-01T04:59:32;2.90;;;2.30;;
20138;SDS011;10230;51.502;10.800;2022-10-01T05:01:58;2.67;;;2.13;;
20138;SDS011;10230;51.502;10.800;2022-10-01T05:04:24;2.57;;;2.00;;
20138;SDS011;10230;51.502;10.800;2022-10-01T05:06:51;3.03;;;2.03;;
20138;SDS011;10230;51.502;10.800;2022-10-01T05:09:17;3.77;;;2.60;;
20138;SDS011;10230;51.502;10.800;2022-10-01T05:11:43;6.43;;;3.33;;
20138;SDS011;10230;51.502;10.800;2022-10-01T05:14:10;3.60;;;2.40;;
20138;SDS011;10230;51.502;10.800;2022-10-01T05:16:36;5.17;;;2.50;;
20138;SDS011;10230;51.502;10.800;2022-10-01T05:19:02;4.80;;;3.40;;
20138;SDS011;10230;51.502;10.800;2022-10-01T05:21:28;4.60;;;2.40;;
20138;SDS011;10230;51.502;10.800;2022-10-01T05:23:55;3.50;;;2.70;;
20138;SDS011;10230;51.502;10.800;2022-10-01T05:26:21;3.23;;;2.33;;
20138;SDS011;10230;51.502;10.800;2022-10-01T05:28:47;2.50;;;2.00;;
20138;SDS011;10230;51.502;10.800;2022-10-01T05:31:13;3.20;;;2.30;;
20138;SDS011;10230;51.502;10.800;2022-10-01T05:33:39;3.90;;;2.77;;
20138;SDS011;10230;51.502;10.800;2022-10-01T05:36:06;5.70;;;3.10;;
20138;SDS011;10230;51.502;10.800;2022-10-01T05:38:33;3.43;;;2.30;;
20138;SDS011;10230;51.502;10.800;2022-10-01T05:41:02;4.43;;;2.37;;
20138;SDS011;10230;51.502;10.800;2022-10-01T05:43:28;3.50;;;2.20;;
20138;SDS011;10230;51.502;10.800;2022-10-01T05:45:58;6.30;;;3.53;;
20138;SDS011;10230;51.502;10.800;2022-10-01T05:48:24;5.43;;;2.60;;
20138;SDS011;10230;51.502;10.800;2022-10-01T05:50:50;5.33;;;3.07;;
20138;SDS011;10230;51.502;10.800;2022-10-01T05:53:18;4.80;;;2.97;;
20138;SDS011;10230;51.502;10.800;2022-10-01T05:55:44;4.57;;;2.97;;
20138;SDS011;10230;51.502;10.800;2022-10-01T05:58:10;5.37;;;2.77;;
20138;SDS011;10230;51.502;10.800;2022-10-01T06:00:37;4.07;;;2.70;;
20138;SDS011;10230;51.502;10.800;2022-10-01T06:03:04;4.97;;;2.70;;
20138;SDS011;10230;51.502;10.800;2022-10-01T06:05:31;3.90;;;2.73;;
20138;SDS011;10230;51.502;10.800;2022-10-01T06:07:57;5.73;;;3.27;;
20138;SDS011;10230;51.502;10.800;2022-10-01T06:10:23;2.47;;;2.13;;
20138;SDS011;10230;51.502;10.800;2022-10-01T06:12:56;6.77;;;3.00;;
20138;SDS011;10230;51.502;10.800;2022-10-01T06:15:23;4.23;;;2.77;;
20138;SDS011;10230;51.502;10.800;2022-10-01T06:17:49;3.40;;;2.30;;
20138;SDS011;10230;51.502;10.800;2022-10-01T06:20:15;2.90;;;2.07;;
20138;SDS011;10230;51.502;10.800;2022-10-01T06:22:43;4.13;;;2.30;;
20138;SDS011;10230;51.502;10.800;2022-10-01T06:25:10;3.47;;;2.37;;
20138;SDS011;10230;51.502;10.800;2022-10-01T06:27:37;4.03;;;3.00;;
20138;SDS011;10230;51.502;10.800;2022-10-01T06:30:04;5.10;;;2.43;;
20138;SDS011;10230;51.502;10.800;2022-10-01T06:32:30;3.10;;;2.07;;
20138;SDS011;10230;51.502;10.800;2022-10-01T06:34:56;2.40;;;1.73;;
20138;SDS011;10230;51.502;10.800;2022-10-01T06:37:22;3.53;;;2.00;;
20138;SDS011;10230;51.502;10.800;2022-10-01T06:39:49;2.77;;;2.03;;
20138;SDS011;10230;51.502;10.800;2022-10-01T06:42:15;3.37;;;2.33;;
20138;SDS011;10230;51.502;10.800;2022-10-01T06:44:41;3.50;;;2.17;;
20138;SDS011;10230;51.502;10.800;2022-10-01T06:47:07;3.97;;;2.00;;
20138;SDS011;10230;51.502;10.800;2022-10-01T06:49:33;3.47;;;2.00;;
20138;SDS011;10230;51.502;10.800;2022-10-01T06:51:59;4.30;;;2.37;;
20138;SDS011;10230;51.502;10.800;2022-10-01T06:54:44;2.77;;;1.80;;
20138;SDS011;10230;51.502;10.800;2022-10-01T06:57:10;2.10;;;1.80;;
20138;SDS011;10230;51.502;10.800;2022-10-01T06:59:36;2.93;;;2.20;;
20138;SDS011;10230;51.502;10.800;2022-10-01T07:02:03;2.73;;;2.10;;
20138;SDS011;10230;51.502;10.800;2022-10-01T07:04:29;5.97;;;2.50;;
20138;SDS011;10230;51.502;10.800;2022-10-01T07:06:56;3.00;;;2.03;;
20138;SDS011;10230;51.502;10.800;2022-10-01T07:09:23;3.43;;;2.40;;
20138;SDS011;10230;51.502;10.800;2022-10-01T07:11:49;2.50;;;2.00;;
20138;SDS011;10230;51.502;10.800;2022-10-01T07:14:17;2.23;;;1.73;;
20138;SDS011;10230;51.502;10.800;2022-10-01T07:16:43;3.57;;;2.17;;
20138;SDS011;10230;51.502;10.800;2022-10-01T07:19:09;4.23;;;2.57;;
20138;SDS011;10230;51.502;10.800;2022-10-01T07:21:36;1.77;;;1.50;;
20138;SDS011;10230;51.502;10.800;2022-10-01T07:24:02;1.93;;;1.53;;
20138;SDS011;10230;51.502;10.800;2022-10-01T07:26:28;3.47;;;2.07;;
20138;SDS011;10230;51.502;10.800;2022-10-01T07:28:54;2.10;;;1.57;;
20138;SDS011;10230;51.502;10.800;2022-10-01T07:31:20;4.53;;;1.93;;
20138;SDS011;10230;51.502;10.800;2022-10-01T07:33:48;3.80;;;2.23;;
20138;SDS011;10230;51.502;10.800;2022-10-01T07:36:14;4.50;;;2.23;;
20138;SDS011;10230;51.502;10.800;2022-10-01T07:38:40;3.23;;;2.20;;
20138;SDS011;10230;51.502;10.800;2022-10-01T07:41:08;2.00;;;1.83;;
20138;SDS011;10230;51.502;10.800;2022-10-01T07:43:34;2.97;;;2.10;;
20138;SDS011;10230;51.502;10.800;2022-10-01T07:46:00;3.37;;;2.00;;
20138;SDS011;10230;51.502;10.800;2022-10-01T07:48:28;2.83;;;1.90;;
20138;SDS011;10230;51.502;10.800;2022-10-01T07:50:55;4.30;;;2.83;;
20138;SDS011;10230;51.502;10.800;2022-10-01T07:53:22;3.00;;;2.27;;
20138;SDS011;10230;51.502;10.800;2022-10-01T07:55:49;3.07;;;1.83;;
20138;SDS011;10230;51.502;10.800;2022-10-01T07:58:15;2.93;;;2.30;;
20138;SDS011;10230;51.502;10.800;2022-10-01T08:00:42;5.97;;;1.90;;
20138;SDS011;10230;51.502;10.800;2022-10-01T08:03:09;3.60;;;2.40;;
20138;SDS011;10230;51.502;10.800;2022-10-01T08:05:39;2.80;;;1.50;;
20138;SDS011;10230;51.502;10.800;2022-10-01T08:08:07;4.57;;;2.30;;
20138;SDS011;10230;51.502;10.800;2022-10-01T08:10:33;3.67;;;1.70;;
20138;SDS011;10230;51.502;10.800;2022-10-01T08:13:00;3.10;;;2.03;;
20138;SDS011;10230;51.502;10.800;2022-10-01T08:15:38;4.27;;;2.07;;
20138;SDS011;10230;51.502;10.800;2022-10-01T08:18:04;3.60;;;2.23;;
20138;SDS011;10230;51.502;10.800;2022-10-01T08:20:30;3.33;;;2.23;;
20138;SDS011;10230;51.502;10.800;2022-10-01T08:23:00;2.43;;;2.23;;
20138;SDS011;10230;51.502;10.800;2022-10-01T08:25:27;2.70;;;1.93;;
20138;SDS011;10230;51.502;10.800;2022-10-01T08:27:53;2.37;;;1.80;;
20138;SDS011;10230;51.502;10.800;2022-10-01T08:30:18;2.00;;;1.40;;
20138;SDS011;10230;51.502;10.800;2022-10-01T08:32:44;2.47;;;1.90;;
20138;SDS011;10230;51.502;10.800;2022-10-01T08:35:10;2.17;;;1.87;;
20138;SDS011;10230;51.502;10.800;2022-10-01T08:37:37;2.77;;;1.70;;
20138;SDS011;10230;51.502;10.800;2022-10-01T08:40:03;2.47;;;1.60;;
20138;SDS011;10230;51.502;10.800;2022-10-01T08:42:39;3.00;;;1.57;;
20138;SDS011;10230;51.502;10.800;2022-10-01T08:45:15;2.50;;;1.90;;
20138;SDS011;10230;51.502;10.800;2022-10-01T08:47:56;1.77;;;1.50;;
20138;SDS011;10230;51.502;10.800;2022-10-01T08:50:28;3.13;;;2.03;;
20138;SDS011;10230;51.502;10.800;2022-10-01T08:52:56;4.13;;;2.07;;
20138;SDS011;10230;51.502;10.800;2022-10-01T08:55:23;1.53;;;1.43;;
20138;SDS011;10230;51.502;10.800;2022-10-01T08:57:55;3.30;;;1.37;;
20138;SDS011;10230;51.502;10.800;2022-10-01T09:00:21;2.00;;;1.57;;
20138;SDS011;10230;51.502;10.800;2022-10-01T09:02:47;1.13;;;1.00;;
20138;SDS011;10230;51.502;10.800;2022-10-01T09:05:31;3.00;;;1.57;;
20138;SDS011;10230;51.502;10.800;2022-10-01T09:08:19;2.10;;;0.70;;
20138;SDS011;10230;51.502;10.800;2022-10-01T09:16:06;1.77;;;1.10;;
20138;SDS011;10230;51.502;10.800;2022-10-01T09:21:17;1.47;;;0.60;;
20138;SDS011;10230;51.502;10.800;2022-10-01T09:23:52;2.17;;;0.73;;
20138;SDS011;10230;51.502;10.800;2022-10-01T09:26:20;2.17;;;1.00;;
20138;SDS011;10230;51.502;10.800;2022-10-01T09:28:46;3.57;;;0.80;;
20138;SDS011;10230;51.502;10.800;2022-10-01T09:31:21;1.23;;;0.57;;
20138;SDS011;10230;51.502;10.800;2022-10-01T09:33:50;0.50;;;0.50;;
20138;SDS011;10230;51.502;10.800;2022-10-01T09:41:43;1.70;;;0.70;;
20138;SDS011;10230;51.502;10.800;2022-10-01T09:44:21;0.70;;;0.50;;
20138;SDS011;10230;51.502;10.800;2022-10-01T09:46:51;0.63;;;0.60;;
20138;SDS011;10230;51.502;10.800;2022-10-01T09:51:51;1.40;;;0.90;;
20138;SDS011;10230;51.502;10.800;2022-10-01T09:56:54;0.80;;;0.37;;
20138;SDS011;10230;51.502;10.800;2022-10-01T09:59:26;1.13;;;0.93;;
20138;SDS011;10230;51.502;10.800;2022-10-01T10:01:55;1.27;;;0.80;;
20138;SDS011;10230;51.502;10.800;2022-10-01T10:04:23;1.87;;;0.60;;
20138;SDS011;10230;51.502;10.800;2022-10-01T10:06:49;0.30;;;0.30;;
20138;SDS011;10230;51.502;10.800;2022-10-01T10:09:17;1.10;;;0.80;;
20138;SDS011;10230;51.502;10.800;2022-10-01T10:11:45;0.50;;;0.40;;
20138;SDS011;10230;51.502;10.800;2022-10-01T10:14:26;0.80;;;0.57;;
20138;SDS011;10230;51.502;10.800;2022-10-01T10:16:53;0.90;;;0.60;;
20138;SDS011;10230;51.502;10.800;2022-10-01T10:19:21;3.53;;;0.60;;
20138;SDS011;10230;51.502;10.800;2022-10-01T10:21:51;0.40;;;0.30;;
20138;SDS011;10230;51.502;10.800;2022-10-01T10:24:25;0.77;;;0.60;;
20138;SDS011;10230;51.502;10.800;2022-10-01T10:26:54;0.40;;;0.40;;
20138;SDS011;10230;51.502;10.800;2022-10-01T10:29:29;0.63;;;0.37;;
20138;SDS011;10230;51.502;10.800;2022-10-01T10:31:55;1.60;;;0.30;;
20138;SDS011;10230;51.502;10.800;2022-10-01T10:34:37;0.20;;;0.20;;
20138;SDS011;10230;51.502;10.800;2022-10-01T10:37:11;0.30;;;0.23;;
20138;SDS011;10230;51.502;10.800;2022-10-01T10:39:44;0.37;;;0.30;;
20138;SDS011;10230;51.502;10.800;2022-10-01T10:42:14;0.30;;;0.30;;
20138;SDS011;10230;51.502;10.800;2022-10-01T10:44:40;0.10;;;0.10;;
20138;SDS011;10230;51.502;10.800;2022-10-01T10:47:09;0.30;;;0.20;;
20138;SDS011;10230;51.502;10.800;2022-10-01T10:49:42;0.53;;;0.30;;
20138;SDS011;10230;51.502;10.800;2022-10-01T10:52:24;0.20;;;0.20;;
20138;SDS011;10230;51.502;10.800;2022-10-01T10:54:53;0.43;;;0.23;;
20138;SDS011;10230;51.502;10.800;2022-10-01T10:57:24;0.57;;;0.50;;
20138;SDS011;10230;51.502;10.800;2022-10-01T11:02:20;0.40;;;0.30;;
20138;SDS011;10230;51.502;10.800;2022-10-01T11:04:49;0.50;;;0.30;;
20138;SDS011;10230;51.502;10.800;2022-10-01T11:07:20;0.70;;;0.30;;
20138;SDS011;10230;51.502;10.800;2022-10-01T11:34:13;2.73;;;0.20;;
20138;SDS011;10230;51.502;10.800;2022-10-01T11:39:30;0.10;;;0.10;;
20138;SDS011;10230;51.502;10.800;2022-10-01T11:42:03;0.20;;;0.13;;
20138;SDS011;10230;51.502;10.800;2022-10-01T11:52:01;0.47;;;0.37;;
20138;SDS011;10230;51.502;10.800;2022-10-01T11:54:28;0.20;;;0.20;;
20138;SDS011;10230;51.502;10.800;2022-10-01T11:56:56;0.20;;;0.13;;
20138;SDS011;10230;51.502;10.800;2022-10-01T11:59:43;0.10;;;0.10;;
20138;SDS011;10230;51.502;10.800;2022-10-01T12:02:29;1.23;;;0.50;;
20138;SDS011;10230;51.502;10.800;2022-10-01T12:05:01;0.83;;;0.37;;
20138;SDS011;10230;51.502;10.800;2022-10-01T12:07:38;0.83;;;0.43;;
20138;SDS011;10230;51.502;10.800;2022-10-01T12:12:45;0.30;;;0.20;;
20138;SDS011;10230;51.502;10.800;2022-10-01T12:20:16;0.33;;;0.20;;
20138;SDS011;10230;51.502;10.800;2022-10-01T12:22:45;0.40;;;0.40;;
20138;SDS011;10230;51.502;10.800;2022-10-01T12:25:12;0.63;;;0.43;;
20138;SDS011;10230;51.502;10.800;2022-10-01T12:30:24;0.43;;;0.23;;
20138;SDS011;10230;51.502;10.800;2022-10-01T12:33:01;0.80;;;0.60;;
20138;SDS011;10230;51.502;10.800;2022-10-01T12:40:39;0.75;;;0.75;;
20138;SDS011;10230;51.502;10.800;2022-10-01T12:56:43;0.28;;;0.20;;
20138;SDS011;10230;51.502;10.800;2022-10-01T13:04:16;0.13;;;0.10;;
20138;SDS011;10230;51.502;10.800;2022-10-01T13:14:10;0.20;;;0.20;;
20138;SDS011;10230;51.502;10.800;2022-10-01T13:16:42;0.20;;;0.20;;
20138;SDS011;10230;51.502;10.800;2022-10-01T13:19:16;0.20;;;0.10;;
20138;SDS011;10230;51.502;10.800;2022-10-01T13:26:58;1.17;;;0.57;;
20138;SDS011;10230;51.502;10.800;2022-10-01T13:32:01;0.70;;;0.28;;
20138;SDS011;10230;51.502;10.800;2022-10-01T13:34:33;0.50;;;0.20;;
20138;SDS011;10230;51.502;10.800;2022-10-01T13:37:16;1.17;;;0.40;;
20138;SDS011;10230;51.502;10.800;2022-10-01T13:39:42;0.35;;;0.32;;
20138;SDS011;10230;51.502;10.800;2022-10-01T13:42:12;1.30;;;0.63;;
20138;SDS011;10230;51.502;10.800;2022-10-01T13:44:39;1.52;;;0.50;;
20138;SDS011;10230;51.502;10.800;2022-10-01T13:47:05;0.22;;;0.22;;
20138;SDS011;10230;51.502;10.800;2022-10-01T13:49:34;0.75;;;0.30;;
20138;SDS011;10230;51.502;10.800;2022-10-01T13:52:01;0.50;;;0.35;;
20138;SDS011;10230;51.502;10.800;2022-10-01T13:54:37;1.20;;;0.40;;
20138;SDS011;10230;51.502;10.800;2022-10-01T13:57:24;0.30;;;0.30;;
20138;SDS011;10230;51.502;10.800;2022-10-01T14:02:40;0.70;;;0.43;;
20138;SDS011;10230;51.502;10.800;2022-10-01T14:07:42;0.32;;;0.32;;
20138;SDS011;10230;51.502;10.800;2022-10-01T14:10:10;0.43;;;0.43;;
20138;SDS011;10230;51.502;10.800;2022-10-01T14:12:40;1.58;;;0.20;;
20138;SDS011;10230;51.502;10.800;2022-10-01T14:15:27;0.90;;;0.33;;
20138;SDS011;10230;51.502;10.800;2022-10-01T14:18:09;2.00;;;0.45;;
20138;SDS011;10230;51.502;10.800;2022-10-01T14:21:00;0.77;;;0.30;;
20138;SDS011;10230;51.502;10.800;2022-10-01T14:28:37;0.30;;;0.20;;
20138;SDS011;10230;51.502;10.800;2022-10-01T14:36:35;0.95;;;0.20;;
20138;SDS011;10230;51.502;10.800;2022-10-01T14:39:12;0.70;;;0.45;;
20138;SDS011;10230;51.502;10.800;2022-10-01T14:41:39;0.93;;;0.40;;
20138;SDS011;10230;51.502;10.800;2022-10-01T14:46:49;0.30;;;0.30;;
20138;SDS011;10230;51.502;10.800;2022-10-01T14:51:56;0.30;;;0.30;;
20138;SDS011;10230;51.502;10.800;2022-10-01T14:54:23;0.82;;;0.32;;
20138;SDS011;10230;51.502;10.800;2022-10-01T14:56:50;0.73;;;0.45;;
20138;SDS011;10230;51.502;10.800;2022-10-01T14:59:18;1.00;;;0.47;;
20138;SDS011;10230;51.502;10.800;2022-10-01T15:01:56;1.23;;;0.50;;
20138;SDS011;10230;51.502;10.800;2022-10-01T15:04:22;0.73;;;0.30;;
20138;SDS011;10230;51.502;10.800;2022-10-01T15:06:48;0.53;;;0.40;;
20138;SDS011;10230;51.502;10.800;2022-10-01T15:09:15;0.25;;;0.20;;
20138;SDS011;10230;51.502;10.800;2022-10-01T15:11:43;0.60;;;0.50;;
20138;SDS011;10230;51.502;10.800;2022-10-01T15:14:15;0.30;;;0.30;;
20138;SDS011;10230;51.502;10.800;2022-10-01T15:16:42;0.75;;;0.40;;
20138;SDS011;10230;51.502;10.800;2022-10-01T15:19:08;0.70;;;0.30;;
20138;SDS011;10230;51.502;10.800;2022-10-01T15:21:44;0.85;;;0.55;;
20138;SDS011;10230;51.502;10.800;2022-10-01T15:24:57;1.40;;;1.10;;
20138;SDS011;10230;51.502;10.800;2022-10-01T15:26:57;1.57;;;0.90;;
20138;SDS011;10230;51.502;10.800;2022-10-01T15:29:23;0.93;;;0.20;;
20138;SDS011;10230;51.502;10.800;2022-10-01T15:31:50;1.60;;;0.33;;
20138;SDS011;10230;51.502;10.800;2022-10-01T15:34:18;0.60;;;0.40;;
20138;SDS011;10230;51.502;10.800;2022-10-01T15:36:45;0.70;;;0.63;;
20138;SDS011;10230;51.502;10.800;2022-10-01T15:41:50;2.27;;;1.10;;
20138;SDS011;10230;51.502;10.800;2022-10-01T15:47:13;0.87;;;0.53;;
20138;SDS011;10230;51.502;10.800;2022-10-01T15:49:39;1.37;;;0.77;;
20138;SDS011;10230;51.502;10.800;2022-10-01T15:52:05;0.93;;;0.50;;
20138;SDS011;10230;51.502;10.800;2022-10-01T15:54:58;1.10;;;0.50;;
20138;SDS011;10230;51.502;10.800;2022-10-01T15:57:24;1.40;;;0.73;;
20138;SDS011;10230;51.502;10.800;2022-10-01T15:59:53;1.33;;;0.60;;
20138;SDS011;10230;51.502;10.800;2022-10-01T16:02:21;1.70;;;0.40;;
20138;SDS011;10230;51.502;10.800;2022-10-01T16:04:48;0.90;;;0.57;;
20138;SDS011;10230;51.502;10.800;2022-10-01T16:07:21;0.60;;;0.60;;
20138;SDS011;10230;51.502;10.800;2022-10-01T16:09:59;0.90;;;0.60;;
20138;SDS011;10230;51.502;10.800;2022-10-01T16:12:36;0.53;;;0.40;;
20138;SDS011;10230;51.502;10.800;2022-10-01T16:15:03;0.83;;;0.30;;
20138;SDS011;10230;51.502;10.800;2022-10-01T16:17:33;0.50;;;0.37;;
20138;SDS011;10230;51.502;10.800;2022-10-01T16:20:01;3.73;;;1.80;;
20138;SDS011;10230;51.502;10.800;2022-10-01T16:22:46;3.03;;;1.20;;
20138;SDS011;10230;51.502;10.800;2022-10-01T16:27:48;1.03;;;0.63;;
20138;SDS011;10230;51.502;10.800;2022-10-01T16:30:19;1.13;;;0.60;;
20138;SDS011;10230;51.502;10.800;2022-10-01T16:32:45;1.50;;;0.70;;
20138;SDS011;10230;51.502;10.800;2022-10-01T16:35:18;1.67;;;0.70;;
20138;SDS011;10230;51.502;10.800;2022-10-01T16:37:45;1.33;;;0.57;;
20138;SDS011;10230;51.502;10.800;2022-10-01T16:40:13;0.97;;;0.83;;
20138;SDS011;10230;51.502;10.800;2022-10-01T16:42:39;0.93;;;0.50;;
20138;SDS011;10230;51.502;10.800;2022-10-01T16:45:06;0.57;;;0.40;;
20138;SDS011;10230;51.502;10.800;2022-10-01T16:47:32;0.57;;;0.43;;
20138;SDS011;10230;51.502;10.800;2022-10-01T16:49:58;0.77;;;0.30;;
20138;SDS011;10230;51.502;10.800;2022-10-01T16:52:24;2.57;;;0.40;;
20138;SDS011;10230;51.502;10.800;2022-10-01T16:54:50;0.53;;;0.50;;
20138;SDS011;10230;51.502;10.800;2022-10-01T16:57:16;1.40;;;0.63;;
20138;SDS011;10230;51.502;10.800;2022-10-01T16:59:42;2.50;;;0.40;;
20138;SDS011;10230;51.502;10.800;2022-10-01T17:02:12;1.83;;;0.70;;
20138;SDS011;10230;51.502;10.800;2022-10-01T17:04:39;1.73;;;0.60;;
20138;SDS011;10230;51.502;10.800;2022-10-01T17:07:05;2.70;;;0.60;;
20138;SDS011;10230;51.502;10.800;2022-10-01T17:09:31;1.87;;;0.40;;
20138;SDS011;10230;51.502;10.800;2022-10-01T17:11:57;1.70;;;0.70;;
20138;SDS011;10230;51.502;10.800;2022-10-01T17:14:25;0.50;;;0.20;;
20138;SDS011;10230;51.502;10.800;2022-10-01T17:16:51;1.60;;;0.70;;
20138;SDS011;10230;51.502;10.800;2022-10-01T17:19:17;0.73;;;0.40;;